sensor_id;sensor_type;location;lat;lon;timestamp;temperature;humidity
17152;DHT22;8691;50.828;4.700;2023-10-13T00:02:23;17.60;99.90
17152;DHT22;8691;50.828;4.700;2023-10-13T00:04:59;17.60;99.90
17152;DHT22;8691;50.828;4.700;2023-10-13T00:07:36;17.60;99.90
17152;DHT22;8691;50.828;4.700;2023-10-13T00:10:13;17.60;99.90
17152;DHT22;8691;50.828;4.700;2023-10-13T00:12:49;17.50;99.90
17152;DHT22;8691;50.828;4.700;2023-10-13T00:15:26;17.60;99.90
17152;DHT22;8691;50.828;4.700;2023-10-13T00:18:04;17.60;99.90
17152;DHT22;8691;50.828;4.700;2023-10-13T00:20:40;17.60;99.90
17152;DHT22;8691;50.828;4.700;2023-10-13T00:23:17;17.60;99.90
17152;DHT22;8691;50.828;4.700;2023-10-13T00:25:54;17.60;99.90
17152;DHT22;8691;50.828;4.700;2023-10-13T00:28:33;17.60;99.90
17152;DHT22;8691;50.828;4.700;2023-10-13T00:31:13;17.70;99.90
17152;DHT22;8691;50.828;4.700;2023-10-13T00:33:49;17.70;99.90
17152;DHT22;8691;50.828;4.700;2023-10-13T00:36:26;17.70;99.90
17152;DHT22;8691;50.828;4.700;2023-10-13T00:39:03;17.70;99.90
17152;DHT22;8691;50.828;4.700;2023-10-13T00:41:43;17.80;99.90
17152;DHT22;8691;50.828;4.700;2023-10-13T00:44:28;17.80;99.90
17152;DHT22;8691;50.828;4.700;2023-10-13T00:47:05;17.80;99.90
17152;DHT22;8691;50.828;4.700;2023-10-13T00:49:42;17.80;99.90
17152;DHT22;8691;50.828;4.700;2023-10-13T00:52:18;17.80;99.90
17152;DHT22;8691;50.828;4.700;2023-10-13T00:54:55;17.80;99.90
17152;DHT22;8691;50.828;4.700;2023-10-13T00:57:32;17.80;99.90
17152;DHT22;8691;50.828;4.700;2023-10-13T01:00:08;17.80;99.90
17152;DHT22;8691;50.828;4.700;2023-10-13T01:02:57;17.80;99.90
17152;DHT22;8691;50.828;4.700;2023-10-13T01:05:34;17.80;99.90
17152;DHT22;8691;50.828;4.700;2023-10-13T01:08:10;17.80;99.90
17152;DHT22;8691;50.828;4.700;2023-10-13T01:10:47;17.80;99.90
17152;DHT22;8691;50.828;4.700;2023-10-13T01:13:24;17.80;99.90
17152;DHT22;8691;50.828;4.700;2023-10-13T01:16:00;17.80;99.90
17152;DHT22;8691;50.828;4.700;2023-10-13T01:18:38;17.80;99.90
17152;DHT22;8691;50.828;4.700;2023-10-13T01:21:18;17.80;99.90
17152;DHT22;8691;50.828;4.700;2023-10-13T01:23:54;17.80;99.90
17152;DHT22;8691;50.828;4.700;2023-10-13T01:26:32;17.80;99.90
17152;DHT22;8691;50.828;4.700;2023-10-13T01:29:08;17.80;99.90
17152;DHT22;8691;50.828;4.700;2023-10-13T01:31:45;17.80;99.90
17152;DHT22;8691;50.828;4.700;2023-10-13T01:34:22;17.80;99.90
17152;DHT22;8691;50.828;4.700;2023-10-13T01:36:59;17.80;99.90
17152;DHT22;8691;50.828;4.700;2023-10-13T01:39:36;17.80;99.90
17152;DHT22;8691;50.828;4.700;2023-10-13T01:42:13;17.80;99.90
17152;DHT22;8691;50.828;4.700;2023-10-13T01:44:49;17.80;99.90
17152;DHT22;8691;50.828;4.700;2023-10-13T01:47:26;17.80;99.90
17152;DHT22;8691;50.828;4.700;2023-10-13T01:50:03;17.70;99.90
17152;DHT22;8691;50.828;4.700;2023-10-13T01:52:40;17.70;99.90
17152;DHT22;8691;50.828;4.700;2023-10-13T01:55:17;17.60;99.90
17152;DHT22;8691;50.828;4.700;2023-10-13T01:57:53;17.70;99.90
17152;DHT22;8691;50.828;4.700;2023-10-13T02:00:31;17.70;99.90
17152;DHT22;8691;50.828;4.700;2023-10-13T02:03:11;17.70;99.90
17152;DHT22;8691;50.828;4.700;2023-10-13T02:05:47;17.70;99.90
17152;DHT22;8691;50.828;4.700;2023-10-13T02:08:24;17.70;99.90
17152;DHT22;8691;50.828;4.700;2023-10-13T02:11:00;17.70;99.90
17152;DHT22;8691;50.828;4.700;2023-10-13T02:13:40;17.70;99.90
17152;DHT22;8691;50.828;4.700;2023-10-13T02:16:19;17.70;99.90
17152;DHT22;8691;50.828;4.700;2023-10-13T02:18:56;17.70;99.90
17152;DHT22;8691;50.828;4.700;2023-10-13T02:21:34;17.70;99.90
17152;DHT22;8691;50.828;4.700;2023-10-13T02:24:10;17.70;99.90
17152;DHT22;8691;50.828;4.700;2023-10-13T02:26:49;17.70;99.90
17152;DHT22;8691;50.828;4.700;2023-10-13T02:29:26;17.70;99.90
17152;DHT22;8691;50.828;4.700;2023-10-13T02:32:02;17.70;99.90
17152;DHT22;8691;50.828;4.700;2023-10-13T02:34:39;17.70;99.90
17152;DHT22;8691;50.828;4.700;2023-10-13T02:37:16;17.80;99.90
17152;DHT22;8691;50.828;4.700;2023-10-13T02:39:53;17.80;99.90
17152;DHT22;8691;50.828;4.700;2023-10-13T02:42:29;17.80;99.90
17152;DHT22;8691;50.828;4.700;2023-10-13T02:45:06;17.80;99.90
17152;DHT22;8691;50.828;4.700;2023-10-13T02:47:43;17.80;99.90
17152;DHT22;8691;50.828;4.700;2023-10-13T02:50:20;17.80;99.90
17152;DHT22;8691;50.828;4.700;2023-10-13T02:52:57;17.90;99.90
17152;DHT22;8691;50.828;4.700;2023-10-13T02:55:34;17.90;99.90
17152;DHT22;8691;50.828;4.700;2023-10-13T02:58:10;17.90;99.90
17152;DHT22;8691;50.828;4.700;2023-10-13T03:00:47;17.90;99.90
17152;DHT22;8691;50.828;4.700;2023-10-13T03:03:24;17.90;99.90
17152;DHT22;8691;50.828;4.700;2023-10-13T03:06:00;17.90;99.90
17152;DHT22;8691;50.828;4.700;2023-10-13T03:08:37;17.90;99.90
17152;DHT22;8691;50.828;4.700;2023-10-13T03:11:14;17.90;99.90
17152;DHT22;8691;50.828;4.700;2023-10-13T03:13:51;17.90;99.90
17152;DHT22;8691;50.828;4.700;2023-10-13T03:16:27;18.00;99.90
17152;DHT22;8691;50.828;4.700;2023-10-13T03:19:04;18.00;99.90
17152;DHT22;8691;50.828;4.700;2023-10-13T03:21:41;18.00;99.90
17152;DHT22;8691;50.828;4.700;2023-10-13T03:24:17;18.00;99.90
17152;DHT22;8691;50.828;4.700;2023-10-13T03:26:54;18.00;99.90
17152;DHT22;8691;50.828;4.700;2023-10-13T03:29:31;18.00;99.90
17152;DHT22;8691;50.828;4.700;2023-10-13T03:32:10;18.00;99.90
17152;DHT22;8691;50.828;4.700;2023-10-13T03:34:53;18.00;99.90
17152;DHT22;8691;50.828;4.700;2023-10-13T03:37:35;18.00;99.90
17152;DHT22;8691;50.828;4.700;2023-10-13T03:40:12;18.00;99.90
17152;DHT22;8691;50.828;4.700;2023-10-13T03:42:58;18.00;99.90
17152;DHT22;8691;50.828;4.700;2023-10-13T03:45:46;18.00;99.90
17152;DHT22;8691;50.828;4.700;2023-10-13T03:48:26;18.00;99.90
17152;DHT22;8691;50.828;4.700;2023-10-13T03:51:02;18.10;99.90
17152;DHT22;8691;50.828;4.700;2023-10-13T03:53:45;18.10;99.90
17152;DHT22;8691;50.828;4.700;2023-10-13T03:56:30;18.10;99.90
17152;DHT22;8691;50.828;4.700;2023-10-13T03:59:16;18.10;99.90
17152;DHT22;8691;50.828;4.700;2023-10-13T04:01:52;18.10;99.90
17152;DHT22;8691;50.828;4.700;2023-10-13T04:04:29;18.00;99.90
17152;DHT22;8691;50.828;4.700;2023-10-13T04:07:17;18.00;99.90
17152;DHT22;8691;50.828;4.700;2023-10-13T04:10:13;18.10;99.90
17152;DHT22;8691;50.828;4.700;2023-10-13T04:12:52;18.10;99.90
17152;DHT22;8691;50.828;4.700;2023-10-13T04:15:48;18.10;99.90
17152;DHT22;8691;50.828;4.700;2023-10-13T04:18:42;18.10;99.90
17152;DHT22;8691;50.828;4.700;2023-10-13T04:21:31;18.10;99.90
17152;DHT22;8691;50.828;4.700;2023-10-13T04:24:16;18.10;99.90
17152;DHT22;8691;50.828;4.700;2023-10-13T04:26:53;18.10;99.90
17152;DHT22;8691;50.828;4.700;2023-10-13T04:29:48;18.10;99.90
17152;DHT22;8691;50.828;4.700;2023-10-13T04:32:24;18.10;99.90
17152;DHT22;8691;50.828;4.700;2023-10-13T04:35:10;18.10;99.90
17152;DHT22;8691;50.828;4.700;2023-10-13T04:37:49;18.10;99.90
17152;DHT22;8691;50.828;4.700;2023-10-13T04:40:35;18.00;99.90
17152;DHT22;8691;50.828;4.700;2023-10-13T04:43:11;18.00;99.90
17152;DHT22;8691;50.828;4.700;2023-10-13T04:46:06;18.00;99.90
17152;DHT22;8691;50.828;4.700;2023-10-13T04:48:52;18.00;99.90
17152;DHT22;8691;50.828;4.700;2023-10-13T04:51:28;18.00;99.90
17152;DHT22;8691;50.828;4.700;2023-10-13T04:54:11;18.00;99.90
17152;DHT22;8691;50.828;4.700;2023-10-13T04:56:48;18.00;99.90
17152;DHT22;8691;50.828;4.700;2023-10-13T04:59:30;18.00;99.90
17152;DHT22;8691;50.828;4.700;2023-10-13T05:02:12;18.00;99.90
17152;DHT22;8691;50.828;4.700;2023-10-13T05:05:10;18.00;99.90
17152;DHT22;8691;50.828;4.700;2023-10-13T05:08:01;17.90;99.90
17152;DHT22;8691;50.828;4.700;2023-10-13T05:10:56;17.90;99.90
17152;DHT22;8691;50.828;4.700;2023-10-13T05:13:52;17.90;99.90
17152;DHT22;8691;50.828;4.700;2023-10-13T05:16:46;17.90;99.90
17152;DHT22;8691;50.828;4.700;2023-10-13T05:19:41;17.90;99.90
17152;DHT22;8691;50.828;4.700;2023-10-13T05:22:36;17.90;99.90
17152;DHT22;8691;50.828;4.700;2023-10-13T05:25:12;17.90;99.90
17152;DHT22;8691;50.828;4.700;2023-10-13T05:28:07;18.00;99.90
17152;DHT22;8691;50.828;4.700;2023-10-13T05:31:02;17.90;99.90
17152;DHT22;8691;50.828;4.700;2023-10-13T05:33:57;17.90;99.90
17152;DHT22;8691;50.828;4.700;2023-10-13T05:36:52;17.90;99.90
17152;DHT22;8691;50.828;4.700;2023-10-13T05:39:46;18.00;99.90
17152;DHT22;8691;50.828;4.700;2023-10-13T05:42:41;17.90;99.90
17152;DHT22;8691;50.828;4.700;2023-10-13T05:45:36;17.90;99.90
17152;DHT22;8691;50.828;4.700;2023-10-13T05:48:24;17.90;99.90
17152;DHT22;8691;50.828;4.700;2023-10-13T05:51:01;17.80;99.90
17152;DHT22;8691;50.828;4.700;2023-10-13T05:53:57;17.80;99.90
17152;DHT22;8691;50.828;4.700;2023-10-13T05:56:53;17.70;99.90
17152;DHT22;8691;50.828;4.700;2023-10-13T05:59:47;17.70;99.90
17152;DHT22;8691;50.828;4.700;2023-10-13T06:02:42;17.70;99.90
17152;DHT22;8691;50.828;4.700;2023-10-13T06:05:37;17.70;99.90
17152;DHT22;8691;50.828;4.700;2023-10-13T06:08:32;17.70;99.90
17152;DHT22;8691;50.828;4.700;2023-10-13T06:11:27;17.70;99.90
17152;DHT22;8691;50.828;4.700;2023-10-13T06:14:22;17.80;99.90
17152;DHT22;8691;50.828;4.700;2023-10-13T06:17:17;17.80;99.90
17152;DHT22;8691;50.828;4.700;2023-10-13T06:20:12;17.90;99.90
17152;DHT22;8691;50.828;4.700;2023-10-13T06:23:06;17.90;99.90
17152;DHT22;8691;50.828;4.700;2023-10-13T06:26:02;17.90;99.90
17152;DHT22;8691;50.828;4.700;2023-10-13T06:28:57;18.00;99.90
17152;DHT22;8691;50.828;4.700;2023-10-13T06:31:34;18.00;99.90
17152;DHT22;8691;50.828;4.700;2023-10-13T06:34:11;18.10;99.90
17152;DHT22;8691;50.828;4.700;2023-10-13T06:36:48;18.10;99.90
17152;DHT22;8691;50.828;4.700;2023-10-13T06:39:24;18.20;99.90
17152;DHT22;8691;50.828;4.700;2023-10-13T06:42:13;18.20;99.90
17152;DHT22;8691;50.828;4.700;2023-10-13T06:44:50;18.30;99.90
17152;DHT22;8691;50.828;4.700;2023-10-13T06:47:26;18.40;99.90
17152;DHT22;8691;50.828;4.700;2023-10-13T06:50:03;18.40;99.90
17152;DHT22;8691;50.828;4.700;2023-10-13T06:52:39;18.50;99.90
17152;DHT22;8691;50.828;4.700;2023-10-13T06:55:16;18.60;99.90
17152;DHT22;8691;50.828;4.700;2023-10-13T06:57:57;18.70;99.90
17152;DHT22;8691;50.828;4.700;2023-10-13T07:00:33;18.70;99.90
17152;DHT22;8691;50.828;4.700;2023-10-13T07:03:10;18.80;99.90
17152;DHT22;8691;50.828;4.700;2023-10-13T07:05:46;18.90;99.90
17152;DHT22;8691;50.828;4.700;2023-10-13T07:08:25;18.90;99.90
17152;DHT22;8691;50.828;4.700;2023-10-13T07:11:02;19.00;99.90
17152;DHT22;8691;50.828;4.700;2023-10-13T07:13:39;19.10;99.90
17152;DHT22;8691;50.828;4.700;2023-10-13T07:16:16;19.20;99.90
17152;DHT22;8691;50.828;4.700;2023-10-13T07:18:52;19.20;99.90
17152;DHT22;8691;50.828;4.700;2023-10-13T07:21:29;19.30;99.90
17152;DHT22;8691;50.828;4.700;2023-10-13T07:24:07;19.30;99.90
17152;DHT22;8691;50.828;4.700;2023-10-13T07:26:46;19.40;99.90
17152;DHT22;8691;50.828;4.700;2023-10-13T07:29:23;19.40;99.90
17152;DHT22;8691;50.828;4.700;2023-10-13T07:32:00;19.50;99.90
17152;DHT22;8691;50.828;4.700;2023-10-13T07:34:36;19.70;99.90
17152;DHT22;8691;50.828;4.700;2023-10-13T07:37:13;20.00;99.90
17152;DHT22;8691;50.828;4.700;2023-10-13T07:39:49;20.30;99.90
17152;DHT22;8691;50.828;4.700;2023-10-13T07:42:26;20.70;99.90
17152;DHT22;8691;50.828;4.700;2023-10-13T07:45:03;21.50;99.90
17152;DHT22;8691;50.828;4.700;2023-10-13T07:47:40;21.40;99.90
17152;DHT22;8691;50.828;4.700;2023-10-13T07:50:17;22.00;99.90
17152;DHT22;8691;50.828;4.700;2023-10-13T07:52:54;22.70;99.90
17152;DHT22;8691;50.828;4.700;2023-10-13T07:55:42;23.30;99.90
17152;DHT22;8691;50.828;4.700;2023-10-13T07:58:19;23.30;99.90
17152;DHT22;8691;50.828;4.700;2023-10-13T08:00:57;22.50;99.90
17152;DHT22;8691;50.828;4.700;2023-10-13T08:03:43;22.50;99.90
17152;DHT22;8691;50.828;4.700;2023-10-13T08:06:20;22.10;99.90
17152;DHT22;8691;50.828;4.700;2023-10-13T08:08:57;22.20;99.90
17152;DHT22;8691;50.828;4.700;2023-10-13T08:11:52;22.20;99.90
17152;DHT22;8691;50.828;4.700;2023-10-13T08:14:29;22.30;99.90
17152;DHT22;8691;50.828;4.700;2023-10-13T08:17:06;22.40;99.90
17152;DHT22;8691;50.828;4.700;2023-10-13T08:19:42;22.50;99.90
17152;DHT22;8691;50.828;4.700;2023-10-13T08:22:21;22.50;99.90
17152;DHT22;8691;50.828;4.700;2023-10-13T08:24:58;22.30;99.90
17152;DHT22;8691;50.828;4.700;2023-10-13T08:27:35;21.80;99.90
17152;DHT22;8691;50.828;4.700;2023-10-13T08:30:12;21.80;99.90
17152;DHT22;8691;50.828;4.700;2023-10-13T08:33:03;21.70;99.90
17152;DHT22;8691;50.828;4.700;2023-10-13T08:35:55;21.70;99.90
17152;DHT22;8691;50.828;4.700;2023-10-13T08:38:32;21.60;99.90
17152;DHT22;8691;50.828;4.700;2023-10-13T08:41:08;21.50;99.90
17152;DHT22;8691;50.828;4.700;2023-10-13T08:44:01;21.30;99.90
17152;DHT22;8691;50.828;4.700;2023-10-13T08:46:37;21.30;99.90
17152;DHT22;8691;50.828;4.700;2023-10-13T08:49:14;21.40;99.90
17152;DHT22;8691;50.828;4.700;2023-10-13T08:51:50;21.40;99.90
17152;DHT22;8691;50.828;4.700;2023-10-13T08:54:28;21.40;99.90
17152;DHT22;8691;50.828;4.700;2023-10-13T08:57:10;21.40;99.90
17152;DHT22;8691;50.828;4.700;2023-10-13T08:59:56;21.70;99.90
17152;DHT22;8691;50.828;4.700;2023-10-13T09:02:33;22.00;99.90
17152;DHT22;8691;50.828;4.700;2023-10-13T09:05:27;22.00;99.90
17152;DHT22;8691;50.828;4.700;2023-10-13T09:08:13;21.90;99.90
17152;DHT22;8691;50.828;4.700;2023-10-13T09:10:50;21.90;99.90
17152;DHT22;8691;50.828;4.700;2023-10-13T09:13:33;21.90;99.90
17152;DHT22;8691;50.828;4.700;2023-10-13T09:16:10;21.90;99.90
17152;DHT22;8691;50.828;4.700;2023-10-13T09:18:47;21.90;99.90
17152;DHT22;8691;50.828;4.700;2023-10-13T09:21:23;22.00;99.90
17152;DHT22;8691;50.828;4.700;2023-10-13T09:24:08;22.00;99.90
17152;DHT22;8691;50.828;4.700;2023-10-13T09:26:49;22.10;99.90
17152;DHT22;8691;50.828;4.700;2023-10-13T09:29:25;22.30;99.90
17152;DHT22;8691;50.828;4.700;2023-10-13T09:32:02;22.30;99.90
17152;DHT22;8691;50.828;4.700;2023-10-13T09:34:39;22.30;99.90
17152;DHT22;8691;50.828;4.700;2023-10-13T09:37:18;22.20;99.90
17152;DHT22;8691;50.828;4.700;2023-10-13T09:39:58;22.10;99.90
17152;DHT22;8691;50.828;4.700;2023-10-13T09:42:34;22.10;99.90
17152;DHT22;8691;50.828;4.700;2023-10-13T09:45:11;22.10;99.90
17152;DHT22;8691;50.828;4.700;2023-10-13T09:47:48;22.10;99.90
17152;DHT22;8691;50.828;4.700;2023-10-13T09:50:24;22.10;99.90
17152;DHT22;8691;50.828;4.700;2023-10-13T09:53:01;22.10;99.90
17152;DHT22;8691;50.828;4.700;2023-10-13T09:55:40;22.10;99.90
17152;DHT22;8691;50.828;4.700;2023-10-13T09:58:16;22.20;99.90
17152;DHT22;8691;50.828;4.700;2023-10-13T10:00:54;22.20;99.90
17152;DHT22;8691;50.828;4.700;2023-10-13T10:03:32;22.30;99.90
17152;DHT22;8691;50.828;4.700;2023-10-13T10:06:09;22.30;99.90
17152;DHT22;8691;50.828;4.700;2023-10-13T10:08:51;22.40;99.90
17152;DHT22;8691;50.828;4.700;2023-10-13T10:17:25;23.30;99.90
17152;DHT22;8691;50.828;4.700;2023-10-13T10:20:02;23.30;99.90
17152;DHT22;8691;50.828;4.700;2023-10-13T10:22:39;23.50;99.90
17152;DHT22;8691;50.828;4.700;2023-10-13T10:25:15;23.40;99.90
17152;DHT22;8691;50.828;4.700;2023-10-13T10:28:04;23.40;99.90
17152;DHT22;8691;50.828;4.700;2023-10-13T10:30:40;23.40;99.90
17152;DHT22;8691;50.828;4.700;2023-10-13T10:33:18;23.70;99.90
17152;DHT22;8691;50.828;4.700;2023-10-13T10:36:00;23.60;99.90
17152;DHT22;8691;50.828;4.700;2023-10-13T10:38:37;23.80;99.90
17152;DHT22;8691;50.828;4.700;2023-10-13T10:41:16;23.80;99.90
17152;DHT22;8691;50.828;4.700;2023-10-13T10:43:52;23.90;99.90
17152;DHT22;8691;50.828;4.700;2023-10-13T10:46:29;23.90;99.90
17152;DHT22;8691;50.828;4.700;2023-10-13T10:49:11;24.00;99.90
17152;DHT22;8691;50.828;4.700;2023-10-13T10:51:48;24.10;99.90
17152;DHT22;8691;50.828;4.700;2023-10-13T10:54:25;24.10;99.90
17152;DHT22;8691;50.828;4.700;2023-10-13T10:57:01;24.10;99.90
17152;DHT22;8691;50.828;4.700;2023-10-13T10:59:41;24.00;99.90
17152;DHT22;8691;50.828;4.700;2023-10-13T11:02:18;24.00;99.90
17152;DHT22;8691;50.828;4.700;2023-10-13T11:04:54;24.00;99.90
17152;DHT22;8691;50.828;4.700;2023-10-13T11:07:31;24.00;99.90
17152;DHT22;8691;50.828;4.700;2023-10-13T11:10:08;24.20;99.90
17152;DHT22;8691;50.828;4.700;2023-10-13T11:12:57;24.50;99.90
17152;DHT22;8691;50.828;4.700;2023-10-13T11:15:40;24.80;99.90
17152;DHT22;8691;50.828;4.700;2023-10-13T11:18:10;25.00;99.90
17152;DHT22;8691;50.828;4.700;2023-10-13T11:20:49;24.90;99.90
17152;DHT22;8691;50.828;4.700;2023-10-13T11:23:31;24.80;99.90
17152;DHT22;8691;50.828;4.700;2023-10-13T11:26:08;24.70;99.90
17152;DHT22;8691;50.828;4.700;2023-10-13T11:28:53;24.70;99.90
17152;DHT22;8691;50.828;4.700;2023-10-13T11:31:21;24.60;99.90
17152;DHT22;8691;50.828;4.700;2023-10-13T11:33:58;24.50;99.90
17152;DHT22;8691;50.828;4.700;2023-10-13T11:36:34;24.40;99.90
17152;DHT22;8691;50.828;4.700;2023-10-13T11:39:11;24.40;99.90
17152;DHT22;8691;50.828;4.700;2023-10-13T11:41:48;24.30;99.90
17152;DHT22;8691;50.828;4.700;2023-10-13T11:44:27;24.30;99.90
17152;DHT22;8691;50.828;4.700;2023-10-13T11:47:04;24.40;99.90
17152;DHT22;8691;50.828;4.700;2023-10-13T11:49:58;24.50;99.90
17152;DHT22;8691;50.828;4.700;2023-10-13T11:52:36;24.60;99.90
17152;DHT22;8691;50.828;4.700;2023-10-13T11:55:12;24.60;99.90
17152;DHT22;8691;50.828;4.700;2023-10-13T11:57:49;24.60;99.90
17152;DHT22;8691;50.828;4.700;2023-10-13T12:00:27;24.40;99.90
17152;DHT22;8691;50.828;4.700;2023-10-13T12:03:03;24.50;99.90
17152;DHT22;8691;50.828;4.700;2023-10-13T12:05:59;24.40;99.90
17152;DHT22;8691;50.828;4.700;2023-10-13T12:08:54;24.50;99.90
17152;DHT22;8691;50.828;4.700;2023-10-13T12:11:31;24.50;99.90
17152;DHT22;8691;50.828;4.700;2023-10-13T12:14:10;24.60;99.90
17152;DHT22;8691;50.828;4.700;2023-10-13T12:16:55;24.70;99.90
17152;DHT22;8691;50.828;4.700;2023-10-13T12:19:32;24.60;99.90
17152;DHT22;8691;50.828;4.700;2023-10-13T12:22:09;24.50;99.90
17152;DHT22;8691;50.828;4.700;2023-10-13T12:24:45;24.40;99.90
17152;DHT22;8691;50.828;4.700;2023-10-13T12:27:23;24.30;99.90
17152;DHT22;8691;50.828;4.700;2023-10-13T12:30:00;24.40;99.90
17152;DHT22;8691;50.828;4.700;2023-10-13T12:32:37;24.20;99.90
17152;DHT22;8691;50.828;4.700;2023-10-13T12:35:14;24.20;99.90
17152;DHT22;8691;50.828;4.700;2023-10-13T12:37:51;24.10;99.90
17152;DHT22;8691;50.828;4.700;2023-10-13T12:40:27;24.00;99.90
17152;DHT22;8691;50.828;4.700;2023-10-13T12:43:22;23.80;99.90
17152;DHT22;8691;50.828;4.700;2023-10-13T12:46:17;23.80;99.90
17152;DHT22;8691;50.828;4.700;2023-10-13T12:49:12;23.50;99.90
17152;DHT22;8691;50.828;4.700;2023-10-13T12:51:54;23.50;99.90
17152;DHT22;8691;50.828;4.700;2023-10-13T12:54:31;23.40;99.90
17152;DHT22;8691;50.828;4.700;2023-10-13T12:57:16;23.30;99.90
17152;DHT22;8691;50.828;4.700;2023-10-13T12:59:52;23.30;99.90
17152;DHT22;8691;50.828;4.700;2023-10-13T13:02:29;23.20;99.90
17152;DHT22;8691;50.828;4.700;2023-10-13T13:05:06;23.20;99.90
17152;DHT22;8691;50.828;4.700;2023-10-13T13:07:42;23.10;99.90
17152;DHT22;8691;50.828;4.700;2023-10-13T13:10:25;23.10;99.90
17152;DHT22;8691;50.828;4.700;2023-10-13T13:13:13;23.00;99.90
17152;DHT22;8691;50.828;4.700;2023-10-13T13:15:50;22.90;99.90
17152;DHT22;8691;50.828;4.700;2023-10-13T13:18:26;22.90;99.90
17152;DHT22;8691;50.828;4.700;2023-10-13T13:21:04;22.90;99.90
17152;DHT22;8691;50.828;4.700;2023-10-13T13:23:41;22.90;99.90
17152;DHT22;8691;50.828;4.700;2023-10-13T13:26:17;23.00;99.90
17152;DHT22;8691;50.828;4.700;2023-10-13T13:28:54;23.00;99.90
17152;DHT22;8691;50.828;4.700;2023-10-13T13:31:31;23.10;99.90
17152;DHT22;8691;50.828;4.700;2023-10-13T13:34:07;23.20;99.90
17152;DHT22;8691;50.828;4.700;2023-10-13T13:36:47;23.40;99.90
17152;DHT22;8691;50.828;4.700;2023-10-13T13:39:23;23.50;99.90
17152;DHT22;8691;50.828;4.700;2023-10-13T13:42:06;23.40;99.90
17152;DHT22;8691;50.828;4.700;2023-10-13T13:44:46;23.40;99.90
17152;DHT22;8691;50.828;4.700;2023-10-13T13:47:20;23.30;99.90
17152;DHT22;8691;50.828;4.700;2023-10-13T13:49:57;23.30;99.90
17152;DHT22;8691;50.828;4.700;2023-10-13T13:52:33;23.20;99.90
17152;DHT22;8691;50.828;4.700;2023-10-13T13:55:10;23.10;99.90
17152;DHT22;8691;50.828;4.700;2023-10-13T13:57:47;23.10;99.90
17152;DHT22;8691;50.828;4.700;2023-10-13T14:00:24;23.20;99.90
17152;DHT22;8691;50.828;4.700;2023-10-13T14:03:07;23.20;99.90
17152;DHT22;8691;50.828;4.700;2023-10-13T14:05:45;23.20;99.90
17152;DHT22;8691;50.828;4.700;2023-10-13T14:08:22;23.30;99.90
17152;DHT22;8691;50.828;4.700;2023-10-13T14:10:59;23.30;99.90
17152;DHT22;8691;50.828;4.700;2023-10-13T14:13:50;23.50;99.90
17152;DHT22;8691;50.828;4.700;2023-10-13T14:16:27;23.60;99.90
17152;DHT22;8691;50.828;4.700;2023-10-13T14:19:04;23.70;99.90
17152;DHT22;8691;50.828;4.700;2023-10-13T14:21:43;23.70;99.90
17152;DHT22;8691;50.828;4.700;2023-10-13T14:24:20;23.70;99.90
17152;DHT22;8691;50.828;4.700;2023-10-13T14:26:57;23.70;99.90
17152;DHT22;8691;50.828;4.700;2023-10-13T14:29:37;23.60;99.90
17152;DHT22;8691;50.828;4.700;2023-10-13T14:32:16;23.60;99.90
17152;DHT22;8691;50.828;4.700;2023-10-13T14:34:53;23.70;99.90
17152;DHT22;8691;50.828;4.700;2023-10-13T14:37:30;23.60;99.90
17152;DHT22;8691;50.828;4.700;2023-10-13T14:40:07;23.60;99.90
17152;DHT22;8691;50.828;4.700;2023-10-13T14:42:43;23.50;99.90
17152;DHT22;8691;50.828;4.700;2023-10-13T14:45:20;23.40;99.90
17152;DHT22;8691;50.828;4.700;2023-10-13T14:47:57;23.30;99.90
17152;DHT22;8691;50.828;4.700;2023-10-13T14:50:33;23.30;99.90
17152;DHT22;8691;50.828;4.700;2023-10-13T14:53:10;23.20;99.90
17152;DHT22;8691;50.828;4.700;2023-10-13T14:55:47;23.10;99.90
17152;DHT22;8691;50.828;4.700;2023-10-13T14:58:23;23.00;99.90
17152;DHT22;8691;50.828;4.700;2023-10-13T15:01:00;22.90;99.90
17152;DHT22;8691;50.828;4.700;2023-10-13T15:03:37;22.80;99.90
17152;DHT22;8691;50.828;4.700;2023-10-13T15:06:20;22.70;99.90
17152;DHT22;8691;50.828;4.700;2023-10-13T15:09:02;22.60;99.90
17152;DHT22;8691;50.828;4.700;2023-10-13T15:11:39;22.60;99.90
17152;DHT22;8691;50.828;4.700;2023-10-13T15:14:16;22.40;99.90
17152;DHT22;8691;50.828;4.700;2023-10-13T15:16:53;22.30;99.90
17152;DHT22;8691;50.828;4.700;2023-10-13T15:19:29;22.30;99.90
17152;DHT22;8691;50.828;4.700;2023-10-13T15:22:06;22.10;99.90
17152;DHT22;8691;50.828;4.700;2023-10-13T15:24:43;22.00;99.90
17152;DHT22;8691;50.828;4.700;2023-10-13T15:27:20;21.70;99.90
17152;DHT22;8691;50.828;4.700;2023-10-13T15:29:57;21.60;99.90
17152;DHT22;8691;50.828;4.700;2023-10-13T15:32:34;21.60;99.90
17152;DHT22;8691;50.828;4.700;2023-10-13T15:35:19;21.50;99.90
17152;DHT22;8691;50.828;4.700;2023-10-13T15:37:55;21.40;99.90
17152;DHT22;8691;50.828;4.700;2023-10-13T15:40:32;21.30;99.90
17152;DHT22;8691;50.828;4.700;2023-10-13T15:43:10;21.10;99.90
17152;DHT22;8691;50.828;4.700;2023-10-13T15:45:46;21.10;99.90
17152;DHT22;8691;50.828;4.700;2023-10-13T15:48:23;21.00;99.90
17152;DHT22;8691;50.828;4.700;2023-10-13T15:50:59;21.00;99.90
17152;DHT22;8691;50.828;4.700;2023-10-13T15:53:36;20.90;99.90
17152;DHT22;8691;50.828;4.700;2023-10-13T15:56:16;20.80;99.90
17152;DHT22;8691;50.828;4.700;2023-10-13T15:58:50;20.70;99.90
17152;DHT22;8691;50.828;4.700;2023-10-13T16:01:27;20.70;99.90
17152;DHT22;8691;50.828;4.700;2023-10-13T16:04:04;20.60;99.90
17152;DHT22;8691;50.828;4.700;2023-10-13T16:06:40;20.60;99.90
17152;DHT22;8691;50.828;4.700;2023-10-13T16:09:18;20.50;99.90
17152;DHT22;8691;50.828;4.700;2023-10-13T16:12:00;20.50;99.90
17152;DHT22;8691;50.828;4.700;2023-10-13T16:14:37;20.40;99.90
17152;DHT22;8691;50.828;4.700;2023-10-13T16:17:13;20.40;99.90
17152;DHT22;8691;50.828;4.700;2023-10-13T16:19:50;20.40;99.90
17152;DHT22;8691;50.828;4.700;2023-10-13T16:22:27;20.40;99.90
17152;DHT22;8691;50.828;4.700;2023-10-13T16:25:04;20.40;99.90
17152;DHT22;8691;50.828;4.700;2023-10-13T16:27:41;20.30;99.90
17152;DHT22;8691;50.828;4.700;2023-10-13T16:30:17;20.40;99.90
17152;DHT22;8691;50.828;4.700;2023-10-13T16:32:54;20.30;99.90
17152;DHT22;8691;50.828;4.700;2023-10-13T16:35:31;20.30;99.90
17152;DHT22;8691;50.828;4.700;2023-10-13T16:38:07;20.20;99.90
17152;DHT22;8691;50.828;4.700;2023-10-13T16:40:44;20.10;99.90
17152;DHT22;8691;50.828;4.700;2023-10-13T16:43:21;20.00;99.90
17152;DHT22;8691;50.828;4.700;2023-10-13T16:45:58;20.00;99.90
17152;DHT22;8691;50.828;4.700;2023-10-13T16:48:35;20.00;99.90
17152;DHT22;8691;50.828;4.700;2023-10-13T16:51:11;20.00;99.90
17152;DHT22;8691;50.828;4.700;2023-10-13T16:53:51;20.00;99.90
17152;DHT22;8691;50.828;4.700;2023-10-13T16:56:27;19.90;99.90
17152;DHT22;8691;50.828;4.700;2023-10-13T16:59:04;19.90;99.90
17152;DHT22;8691;50.828;4.700;2023-10-13T17:01:43;19.90;99.90
17152;DHT22;8691;50.828;4.700;2023-10-13T17:04:21;19.90;99.90
17152;DHT22;8691;50.828;4.700;2023-10-13T17:06:57;19.90;99.90
17152;DHT22;8691;50.828;4.700;2023-10-13T17:09:34;19.80;99.90
17152;DHT22;8691;50.828;4.700;2023-10-13T17:12:10;19.80;99.90